Time;durP1;ratioP1;P1;durP2;ratioP2;P2;SDS_P1;SDS_P2;PMS_P1;PMS_P2;Temp;Humidity;BMP_temperature;BMP_pressure;BME280_temperature;BME280_humidity;BME280_pressure;Samples;Min_cycle;Max_cycle;Signal;HPM_P1;HPM_P2
2022/08/04 00:00:29;;;;;;;1.58;0.95;;;25.60;99.90;;;;;;4230541;28;20209;-79
2022/08/04 00:02:47;;;;;;;1.63;1.27;;;25.50;99.90;;;;;;4230309;28;20213;-79
2022/08/04 00:04:55;;;;;;;1.20;1.10;;;25.50;99.90;;;;;;4230613;28;20217;-79
2022/08/04 00:07:03;;;;;;;2.10;1.27;;;25.50;99.90;;;;;;4231037;28;20220;-79
2022/08/04 00:09:13;;;;;;;1.75;1.25;;;25.50;99.90;;;;;;4230624;28;20735;-79
2022/08/04 00:11:20;;;;;;;2.35;1.00;;;25.50;99.90;;;;;;4230456;28;20255;-80
2022/08/04 00:13:23;;;;;;;2.50;1.38;;;25.50;99.90;;;;;;4230418;28;20263;-79
2022/08/04 00:15:27;;;;;;;1.27;1.17;;;25.50;99.90;;;;;;4230260;28;20209;-79
2022/08/04 00:17:32;;;;;;;1.40;1.02;;;25.50;99.90;;;;;;4230435;28;20218;-79
2022/08/04 00:19:42;;;;;;;2.10;1.13;;;25.50;99.90;;;;;;4230219;28;20290;-79
2022/08/04 00:21:51;;;;;;;1.75;1.05;;;25.50;99.90;;;;;;4229961;28;20217;-79
2022/08/04 00:23:55;;;;;;;1.95;0.90;;;25.50;99.90;;;;;;4229841;28;20214;-79
2022/08/04 00:25:57;;;;;;;1.50;1.13;;;25.50;99.90;;;;;;4229972;28;20225;-79
2022/08/04 00:28:01;;;;;;;1.08;0.98;;;25.50;99.90;;;;;;4230426;28;20217;-79
2022/08/04 00:30:05;;;;;;;2.83;1.40;;;25.50;99.90;;;;;;4230030;28;20235;-79
2022/08/04 00:32:08;;;;;;;1.17;0.90;;;25.50;99.90;;;;;;4230458;28;20274;-79
2022/08/04 00:34:12;;;;;;;2.40;1.20;;;25.50;99.90;;;;;;4230039;28;20210;-79
2022/08/04 00:36:18;;;;;;;1.85;1.20;;;25.50;99.90;;;;;;4230073;28;20274;-79
2022/08/04 00:38:20;;;;;;;2.25;1.30;;;25.50;99.90;;;;;;4230045;28;20553;-79
2022/08/04 00:40:28;;;;;;;1.30;1.08;;;25.50;99.90;;;;;;4229860;28;20280;-80
2022/08/04 00:42:36;;;;;;;1.08;1.00;;;25.50;99.90;;;;;;4230264;28;20270;-79
2022/08/04 00:44:52;;;;;;;1.20;1.00;;;25.50;99.90;;;;;;4229653;28;20278;-79
2022/08/04 00:47:07;;;;;;;2.13;1.50;;;25.50;99.90;;;;;;4229977;28;20626;-80
2022/08/04 00:49:39;;;;;;;1.60;1.27;;;25.50;99.90;;;;;;4229658;28;20209;-79
2022/08/04 00:51:54;;;;;;;1.50;1.00;;;25.50;99.90;;;;;;4229736;28;20217;-79
2022/08/04 00:54:10;;;;;;;1.38;1.08;;;25.50;99.90;;;;;;4229719;28;20221;-79
2022/08/04 00:56:29;;;;;;;2.28;1.20;;;25.50;99.90;;;;;;4229931;28;20271;-79
2022/08/04 00:58:47;;;;;;;1.58;1.30;;;25.50;99.90;;;;;;4229789;28;20266;-79
2022/08/04 01:00:59;;;;;;;2.00;1.13;;;25.50;99.90;;;;;;4229566;28;20726;-79
2022/08/04 01:03:10;;;;;;;1.52;1.42;;;25.50;99.90;;;;;;4229938;28;20714;-79
2022/08/04 01:05:21;;;;;;;1.42;1.20;;;25.50;99.90;;;;;;4229947;28;20213;-79
2022/08/04 01:07:49;;;;;;;1.38;1.20;;;25.50;99.90;;;;;;4229384;28;20262;-79
2022/08/04 01:10:02;;;;;;;1.77;1.20;;;25.40;99.90;;;;;;4229629;28;20255;-79
2022/08/04 01:12:37;;;;;;;2.00;1.13;;;25.50;99.90;;;;;;4229854;28;20217;-80
2022/08/04 01:14:58;;;;;;;1.75;1.25;;;25.50;99.90;;;;;;4218958;28;20213;-80
2022/08/04 01:17:09;;;;;;;2.30;1.45;;;25.50;99.90;;;;;;4229909;28;20217;-79
2022/08/04 01:19:33;;;;;;;1.50;1.10;;;25.50;99.90;;;;;;4229600;28;20237;-80
2022/08/04 01:22:03;;;;;;;2.72;1.13;;;25.40;99.90;;;;;;4229715;28;20213;-79
2022/08/04 01:24:56;;;;;;;2.50;1.38;;;25.40;99.90;;;;;;4229672;28;20658;-79
2022/08/04 01:27:03;;;;;;;2.28;1.20;;;25.40;99.90;;;;;;4189191;28;20629;-79
2022/08/04 01:29:09;;;;;;;2.45;1.45;;;25.40;99.90;;;;;;4229281;28;20307;-79
2022/08/04 01:31:20;;;;;;;2.47;1.30;;;25.40;99.90;;;;;;4229474;28;20266;-79
2022/08/04 01:33:26;;;;;;;3.30;1.50;;;25.40;99.90;;;;;;4229752;28;20213;-79
2022/08/04 01:35:35;;;;;;;1.65;1.05;;;25.40;99.90;;;;;;4232903;28;20225;-79
2022/08/04 01:37:52;;;;;;;1.98;1.23;;;25.40;99.90;;;;;;4233053;28;20266;-79
2022/08/04 01:40:02;;;;;;;2.30;1.20;;;25.40;99.90;;;;;;4232590;28;20244;-79
2022/08/04 01:42:06;;;;;;;3.22;1.25;;;25.40;99.90;;;;;;4232815;28;20214;-80
2022/08/04 01:44:11;;;;;;;1.88;1.40;;;25.40;99.90;;;;;;4232247;28;20233;-79
2022/08/04 01:46:15;;;;;;;2.03;1.15;;;25.40;99.90;;;;;;4232571;28;20710;-80
2022/08/04 01:48:22;;;;;;;1.55;1.20;;;25.40;99.90;;;;;;4232428;28;20213;-79
2022/08/04 01:50:26;;;;;;;1.83;1.30;;;25.40;99.90;;;;;;4232616;28;20250;-79
2022/08/04 01:52:29;;;;;;;3.05;1.35;;;25.40;99.90;;;;;;4232633;28;20217;-79
2022/08/04 01:54:32;;;;;;;3.35;1.52;;;25.40;99.90;;;;;;4232735;28;20206;-79
2022/08/04 01:56:35;;;;;;;2.65;1.60;;;25.40;99.90;;;;;;4232101;28;20262;-79
2022/08/04 01:58:39;;;;;;;2.80;1.35;;;25.40;99.90;;;;;;4232901;28;20270;-80
2022/08/04 02:00:50;;;;;;;1.67;1.10;;;25.30;99.90;;;;;;4232849;28;20229;-79
2022/08/04 02:02:53;;;;;;;1.75;1.20;;;25.40;99.90;;;;;;4232241;28;20243;-79
2022/08/04 02:04:55;;;;;;;1.30;1.00;;;25.40;99.90;;;;;;4232847;28;20242;-79
2022/08/04 02:07:07;;;;;;;2.95;1.20;;;25.40;99.90;;;;;;4232535;28;20217;-79
2022/08/04 02:09:16;;;;;;;1.63;1.40;;;25.30;99.90;;;;;;4232623;28;20266;-79
2022/08/04 02:11:22;;;;;;;2.90;1.27;;;25.40;99.90;;;;;;4231816;28;20217;-79
2022/08/04 02:13:31;;;;;;;2.00;1.30;;;25.40;99.90;;;;;;4232336;28;20678;-79
2022/08/04 02:15:45;;;;;;;2.38;1.40;;;25.40;99.90;;;;;;4231987;28;20209;-79
2022/08/04 02:17:56;;;;;;;2.58;1.23;;;25.40;99.90;;;;;;4232327;28;20608;-79
2022/08/04 02:20:07;;;;;;;2.08;1.30;;;25.40;99.90;;;;;;4232311;28;20243;-79
2022/08/04 02:22:13;;;;;;;2.67;1.48;;;25.40;99.90;;;;;;4232297;28;20262;-79
2022/08/04 02:24:22;;;;;;;3.38;1.40;;;25.30;99.90;;;;;;4231831;28;20209;-79
2022/08/04 02:26:29;;;;;;;2.67;1.50;;;25.30;99.90;;;;;;4232062;28;20677;-79
2022/08/04 02:28:37;;;;;;;1.92;1.40;;;25.30;99.90;;;;;;4231974;28;20278;-79
2022/08/04 02:30:50;;;;;;;2.05;1.15;;;25.40;99.90;;;;;;4231785;28;20250;-79
2022/08/04 02:32:54;;;;;;;2.20;1.38;;;25.30;99.90;;;;;;4232227;28;20209;-79
2022/08/04 02:35:03;;;;;;;2.47;1.50;;;25.30;99.90;;;;;;4231815;28;20210;-79
2022/08/04 02:37:06;;;;;;;2.50;1.45;;;25.30;99.90;;;;;;4231928;28;20262;-80
2022/08/04 02:39:11;;;;;;;3.10;1.58;;;25.30;99.90;;;;;;4231798;28;20267;-79
2022/08/04 02:41:17;;;;;;;2.22;1.23;;;25.30;99.90;;;;;;4231719;28;20230;-79
2022/08/04 02:43:20;;;;;;;1.83;1.25;;;25.30;99.90;;;;;;4231884;28;20673;-79
2022/08/04 02:45:25;;;;;;;1.88;1.42;;;25.30;99.90;;;;;;4231076;28;20209;-79
2022/08/04 02:47:29;;;;;;;2.78;1.40;;;25.30;99.90;;;;;;4231523;28;20662;-80
2022/08/04 02:49:36;;;;;;;1.67;1.27;;;25.30;99.90;;;;;;4231930;28;20210;-80
2022/08/04 02:51:42;;;;;;;1.88;1.35;;;25.30;99.90;;;;;;4231703;28;20612;-80
2022/08/04 02:53:46;;;;;;;1.42;1.10;;;25.30;99.90;;;;;;4231508;28;20619;-79
2022/08/04 02:55:51;;;;;;;3.67;1.40;;;25.30;99.90;;;;;;4231645;28;20267;-79
2022/08/04 02:57:56;;;;;;;1.77;1.15;;;25.30;99.90;;;;;;4231669;28;20707;-79
2022/08/04 03:00:08;;;;;;;1.77;1.20;;;25.30;99.90;;;;;;4231441;28;20282;-79
2022/08/04 03:02:10;;;;;;;1.75;1.17;;;25.30;99.90;;;;;;4231485;28;20258;-79
2022/08/04 03:04:24;;;;;;;2.45;1.13;;;25.30;99.90;;;;;;4231548;28;20270;-79
2022/08/04 03:07:05;;;;;;;2.47;1.30;;;25.30;99.90;;;;;;4231859;28;20619;-79
2022/08/04 03:09:47;;;;;;;2.55;1.60;;;25.30;99.90;;;;;;4231491;28;20278;-79
2022/08/04 03:12:15;;;;;;;2.60;1.45;;;25.30;99.90;;;;;;4179726;28;20285;-79
2022/08/04 03:14:44;;;;;;;2.35;1.50;;;25.30;99.90;;;;;;4227194;28;20210;-80
2022/08/04 03:17:32;;;;;;;1.88;1.40;;;25.30;99.90;;;;;;4231223;28;20279;-79
2022/08/04 03:20:09;;;;;;;2.05;1.40;;;25.30;99.90;;;;;;4230374;28;20214;-79
2022/08/04 03:22:38;;;;;;;2.33;1.25;;;25.30;99.90;;;;;;4231541;28;20205;-79
2022/08/04 03:25:16;;;;;;;2.15;1.35;;;25.30;99.90;;;;;;4231159;28;20266;-80
2022/08/04 03:27:41;;;;;;;1.45;1.15;;;25.30;99.90;;;;;;4218247;28;20258;-80
2022/08/04 03:30:05;;;;;;;2.05;1.20;;;25.30;99.90;;;;;;4228146;28;20282;-79
2022/08/04 03:32:42;;;;;;;3.25;1.52;;;25.20;99.90;;;;;;4230586;28;20652;-82
2022/08/04 03:35:00;;;;;;;1.80;1.30;;;25.20;99.90;;;;;;4231055;28;20209;-82
2022/08/04 03:37:33;;;;;;;2.15;1.33;;;25.20;99.90;;;;;;4230593;28;20726;-82
2022/08/04 03:40:13;;;;;;;3.17;1.63;;;25.20;99.90;;;;;;4230891;28;20218;-82
2022/08/04 03:42:38;;;;;;;3.15;1.40;;;25.20;99.90;;;;;;4230742;28;20209;-82
2022/08/04 03:45:06;;;;;;;2.20;1.55;;;25.20;99.90;;;;;;4231025;28;20315;-82
2022/08/04 03:47:39;;;;;;;4.07;1.90;;;25.20;99.90;;;;;;4231030;28;20535;-82
2022/08/04 03:50:01;;;;;;;2.15;1.50;;;25.20;99.90;;;;;;4230882;28;20726;-82
2022/08/04 03:55:07;;;;;;;1.88;1.25;;;25.20;99.90;;;;;;4194280;28;20742;-82
2022/08/04 03:58:01;;;;;;;2.55;1.30;;;25.20;99.90;;;;;;4227284;28;20214;-79
2022/08/04 04:00:08;;;;;;;1.58;1.30;;;25.20;99.90;;;;;;4162250;28;20696;-79
2022/08/04 04:02:47;;;;;;;3.03;1.33;;;25.20;99.90;;;;;;4211756;28;20297;-80
2022/08/04 04:05:11;;;;;;;1.80;1.40;;;25.20;99.90;;;;;;4230668;28;20213;-80
2022/08/04 04:07:47;;;;;;;2.38;1.52;;;25.20;99.90;;;;;;4230596;28;20319;-79
2022/08/04 04:10:24;;;;;;;1.88;1.60;;;25.20;99.90;;;;;;4230658;28;20225;-80
2022/08/04 04:12:41;;;;;;;1.90;1.30;;;25.20;99.90;;;;;;4230412;28;20611;-80
2022/08/04 04:14:52;;;;;;;3.03;1.45;;;25.20;99.90;;;;;;4230391;28;20266;-79
2022/08/04 04:17:09;;;;;;;4.07;1.60;;;25.10;99.90;;;;;;4230464;28;20267;-80
2022/08/04 04:19:46;;;;;;;1.92;1.27;;;25.20;99.90;;;;;;4230056;28;20674;-80
2022/08/04 04:22:05;;;;;;;2.05;1.52;;;25.20;99.90;;;;;;4219682;28;20233;-79
2022/08/04 04:24:27;;;;;;;3.45;1.55;;;25.20;99.90;;;;;;4230198;28;20218;-80
2022/08/04 04:26:44;;;;;;;1.85;1.30;;;25.20;99.90;;;;;;4230072;28;20218;-82
2022/08/04 04:28:58;;;;;;;3.33;1.50;;;25.20;99.90;;;;;;4230322;28;20217;-82
2022/08/04 04:31:09;;;;;;;2.30;1.52;;;25.10;99.90;;;;;;4230171;28;20205;-82
2022/08/04 04:33:34;;;;;;;1.88;1.50;;;25.10;99.90;;;;;;4230002;28;20271;-82
2022/08/04 04:35:46;;;;;;;2.35;1.42;;;25.10;99.90;;;;;;4230290;28;20218;-82
2022/08/04 04:38:07;;;;;;;2.42;1.50;;;25.10;99.90;;;;;;4230208;28;20278;-82
2022/08/04 04:40:20;;;;;;;2.03;1.45;;;25.20;99.90;;;;;;4230054;28;20214;-82
2022/08/04 04:42:39;;;;;;;1.48;1.30;;;25.10;99.90;;;;;;4230206;28;20229;-82
2022/08/04 04:45:05;;;;;;;2.67;1.50;;;25.10;99.90;;;;;;4229827;28;20254;-82
2022/08/04 04:47:16;;;;;;;3.80;1.77;;;25.10;99.90;;;;;;4229895;28;20214;-82
2022/08/04 04:49:25;;;;;;;2.90;1.48;;;25.10;99.90;;;;;;4229738;28;20213;-82
2022/08/04 04:51:36;;;;;;;2.33;1.40;;;25.10;99.90;;;;;;4229990;28;20217;-82
2022/08/04 04:53:47;;;;;;;3.80;1.77;;;25.10;99.90;;;;;;4230022;28;20294;-82
2022/08/04 04:55:55;;;;;;;1.70;1.42;;;25.10;99.90;;;;;;4229703;28;20221;-82
2022/08/04 04:58:01;;;;;;;3.22;1.45;;;25.10;99.90;;;;;;4229844;28;20213;-82
2022/08/04 05:00:07;;;;;;;3.80;1.60;;;25.10;99.90;;;;;;4229904;28;20214;-82
2022/08/04 05:02:47;;;;;;;2.42;1.58;;;25.10;99.90;;;;;;4229826;28;20283;-82
2022/08/04 05:05:11;;;;;;;2.67;1.50;;;25.10;99.90;;;;;;4230170;28;20262;-82
2022/08/04 05:07:52;;;;;;;2.38;1.63;;;25.10;99.90;;;;;;4229717;28;20210;-82
2022/08/04 05:10:07;;;;;;;2.50;1.23;;;25.10;99.90;;;;;;4229034;28;20734;-83
2022/08/04 05:12:33;;;;;;;3.30;1.40;;;25.10;99.90;;;;;;4229978;28;20217;-82
2022/08/04 05:14:44;;;;;;;3.40;1.50;;;25.10;99.90;;;;;;4229950;28;20282;-82
2022/08/04 05:16:51;;;;;;;3.20;1.77;;;25.10;99.90;;;;;;4229719;28;20214;-82
2022/08/04 05:19:03;;;;;;;2.38;1.48;;;25.10;99.90;;;;;;4230827;28;20218;-82
2022/08/04 05:21:30;;;;;;;1.85;1.50;;;25.10;99.90;;;;;;4230466;28;20221;-82
2022/08/04 05:23:40;;;;;;;2.55;1.50;;;25.10;99.90;;;;;;4231215;28;20217;-82
2022/08/04 05:25:47;;;;;;;3.25;1.88;;;25.10;99.90;;;;;;4231254;28;20286;-82
2022/08/04 05:27:56;;;;;;;4.32;1.70;;;25.10;99.90;;;;;;4231185;28;20653;-82
2022/08/04 05:30:03;;;;;;;2.67;1.80;;;25.10;99.90;;;;;;4230363;28;20209;-82
2022/08/04 05:32:13;;;;;;;2.15;1.50;;;25.10;99.90;;;;;;4230773;28;20205;-83
2022/08/04 05:34:21;;;;;;;3.10;1.52;;;25.10;99.90;;;;;;4230471;28;20239;-81
2022/08/04 05:36:30;;;;;;;2.13;1.42;;;25.10;99.90;;;;;;4230320;28;20201;-82
2022/08/04 05:38:37;;;;;;;1.85;1.40;;;25.10;99.90;;;;;;4230466;28;20213;-82
2022/08/04 05:40:41;;;;;;;2.40;1.70;;;25.10;99.90;;;;;;4229856;28;20592;-82
2022/08/04 05:42:43;;;;;;;2.92;1.73;;;25.10;99.90;;;;;;4227389;28;20233;-82
2022/08/04 05:44:46;;;;;;;3.53;1.55;;;25.10;99.90;;;;;;4229925;28;20230;-82
2022/08/04 05:46:52;;;;;;;2.83;1.77;;;25.10;99.90;;;;;;4230087;28;20629;-82
2022/08/04 05:48:56;;;;;;;4.90;1.90;;;25.10;99.90;;;;;;4230036;28;20259;-82
2022/08/04 05:50:59;;;;;;;2.60;1.60;;;25.10;99.90;;;;;;4230157;28;20210;-82
2022/08/04 05:53:02;;;;;;;3.22;1.63;;;25.10;99.90;;;;;;4227641;28;20243;-82
2022/08/04 05:55:08;;;;;;;4.95;1.80;;;25.10;99.90;;;;;;4230222;28;20235;-82
2022/08/04 05:57:11;;;;;;;2.33;1.58;;;25.10;99.90;;;;;;4229559;28;20722;-82
2022/08/04 05:59:15;;;;;;;2.70;1.63;;;25.10;99.90;;;;;;4229177;28;20218;-82
2022/08/04 06:01:18;;;;;;;2.50;1.60;;;25.10;99.90;;;;;;4229910;28;20263;-82
2022/08/04 06:03:23;;;;;;;5.78;1.90;;;25.10;99.90;;;;;;4230064;28;20214;-82
2022/08/04 06:05:26;;;;;;;2.85;1.50;;;25.10;99.90;;;;;;4230006;28;20209;-82
2022/08/04 06:07:29;;;;;;;3.05;1.70;;;25.10;99.90;;;;;;4230849;28;20210;-82
2022/08/04 06:09:32;;;;;;;3.40;1.85;;;25.10;99.90;;;;;;4230811;28;20222;-82
2022/08/04 06:11:35;;;;;;;2.25;1.70;;;25.10;99.90;;;;;;4230781;28;20711;-82
2022/08/04 06:13:43;;;;;;;2.50;1.42;;;25.10;99.90;;;;;;4229551;28;20202;-82
2022/08/04 06:15:47;;;;;;;3.60;1.88;;;25.10;99.90;;;;;;4229140;28;20243;-82
2022/08/04 06:17:54;;;;;;;4.90;1.80;;;25.10;99.90;;;;;;4229253;28;20630;-82
2022/08/04 06:19:59;;;;;;;2.88;1.77;;;25.10;99.90;;;;;;4229211;28;20259;-82
2022/08/04 06:22:04;;;;;;;4.00;1.70;;;25.10;99.90;;;;;;4231647;28;20629;-82
2022/08/04 06:24:11;;;;;;;3.80;1.73;;;25.10;99.90;;;;;;4232077;28;20286;-82
2022/08/04 06:26:18;;;;;;;2.92;1.98;;;25.10;99.90;;;;;;4232250;28;20290;-82
2022/08/04 06:28:21;;;;;;;2.25;1.80;;;25.10;99.90;;;;;;4233068;28;20294;-82
2022/08/04 06:30:26;;;;;;;2.95;1.70;;;25.10;99.90;;;;;;4233325;28;20213;-82
2022/08/04 06:32:35;;;;;;;3.45;1.85;;;25.10;99.90;;;;;;4233185;28;20218;-82
2022/08/04 06:34:38;;;;;;;3.63;1.70;;;25.10;99.90;;;;;;4232699;28;20266;-82
2022/08/04 06:36:43;;;;;;;3.78;1.63;;;25.10;99.90;;;;;;4232267;28;20222;-82
2022/08/04 06:38:46;;;;;;;2.33;1.67;;;25.10;99.90;;;;;;4232081;28;20262;-82
2022/08/04 06:40:49;;;;;;;2.42;1.85;;;25.10;99.90;;;;;;4232587;28;20255;-80
2022/08/04 06:42:53;;;;;;;4.13;2.10;;;25.10;99.90;;;;;;4232165;28;20237;-80
2022/08/04 06:44:58;;;;;;;2.88;1.83;;;25.10;99.90;;;;;;4232129;28;20226;-80
2022/08/04 06:47:01;;;;;;;3.20;1.80;;;25.10;99.90;;;;;;4232522;28;20267;-80
2022/08/04 06:49:04;;;;;;;2.55;1.70;;;25.10;99.90;;;;;;4231854;28;20218;-80
2022/08/04 06:51:07;;;;;;;4.47;2.00;;;25.10;99.90;;;;;;4232190;28;20210;-80
2022/08/04 06:53:10;;;;;;;4.32;1.90;;;25.10;99.90;;;;;;4232325;28;20262;-80
2022/08/04 06:55:13;;;;;;;1.92;1.35;;;25.10;99.90;;;;;;4231745;28;20210;-80
2022/08/04 06:57:19;;;;;;;3.10;1.70;;;25.10;99.90;;;;;;4231853;28;20221;-80
2022/08/04 06:59:22;;;;;;;2.13;1.70;;;25.20;99.90;;;;;;4231614;28;20267;-80
2022/08/04 07:01:26;;;;;;;2.50;1.50;;;25.10;99.90;;;;;;4231673;28;20274;-80
2022/08/04 07:03:30;;;;;;;2.45;1.60;;;25.10;99.90;;;;;;4232255;28;20241;-80
2022/08/04 07:05:33;;;;;;;2.78;1.48;;;25.10;99.90;;;;;;4231818;28;20658;-80
2022/08/04 07:07:36;;;;;;;3.03;1.63;;;25.10;99.90;;;;;;4231518;28;20218;-80
2022/08/04 07:09:40;;;;;;;3.63;1.75;;;25.10;99.90;;;;;;4229944;28;20214;-80
2022/08/04 07:11:43;;;;;;;3.22;1.60;;;25.20;99.90;;;;;;4229974;28;20868;-80
2022/08/04 07:13:46;;;;;;;3.78;1.70;;;25.20;99.90;;;;;;4229644;28;20210;-80
2022/08/04 07:15:49;;;;;;;3.00;1.67;;;25.20;99.90;;;;;;4229543;28;20241;-80
2022/08/04 07:17:52;;;;;;;3.65;1.77;;;25.20;99.90;;;;;;4229693;28;20643;-80
2022/08/04 07:19:56;;;;;;;4.05;2.00;;;25.20;99.90;;;;;;4229704;28;20266;-80
2022/08/04 07:21:59;;;;;;;2.22;1.45;;;25.20;99.90;;;;;;4229653;28;20214;-80
2022/08/04 07:24:01;;;;;;;2.28;1.60;;;25.30;99.90;;;;;;4230190;28;20258;-80
2022/08/04 07:26:05;;;;;;;2.17;1.70;;;25.30;99.90;;;;;;4231225;28;20213;-80
2022/08/04 07:28:07;;;;;;;3.47;1.63;;;25.20;99.90;;;;;;4230768;28;20213;-80
2022/08/04 07:30:10;;;;;;;3.67;1.80;;;25.20;99.90;;;;;;4230866;28;20231;-80
2022/08/04 07:32:14;;;;;;;4.07;1.83;;;25.30;99.90;;;;;;4230619;28;20734;-80
2022/08/04 07:34:17;;;;;;;2.33;1.73;;;25.30;99.90;;;;;;4231360;28;20221;-80
2022/08/04 07:36:20;;;;;;;3.20;1.60;;;25.30;99.90;;;;;;4231220;28;20225;-80
2022/08/04 07:38:22;;;;;;;2.35;1.40;;;25.30;99.90;;;;;;4231045;28;20715;-80
2022/08/04 07:40:25;;;;;;;1.80;1.50;;;25.30;99.90;;;;;;4230783;28;20247;-80
2022/08/04 07:42:28;;;;;;;2.67;1.73;;;25.30;99.90;;;;;;4230992;28;20217;-80
2022/08/04 07:44:32;;;;;;;5.00;1.70;;;25.30;99.90;;;;;;4230477;28;20237;-80
2022/08/04 07:46:34;;;;;;;3.15;1.58;;;25.30;99.90;;;;;;4230808;28;20226;-80
2022/08/04 07:48:37;;;;;;;2.70;1.67;;;25.30;99.90;;;;;;4230889;28;20206;-80
2022/08/04 07:50:42;;;;;;;4.25;1.88;;;25.30;99.90;;;;;;4230512;28;20267;-80
2022/08/04 07:52:46;;;;;;;2.60;1.67;;;25.30;99.90;;;;;;4230699;28;20217;-79
2022/08/04 07:54:49;;;;;;;2.65;1.70;;;25.30;99.90;;;;;;4230504;28;20263;-80
2022/08/04 07:56:53;;;;;;;1.80;1.50;;;25.30;99.90;;;;;;4230767;28;20550;-80
2022/08/04 07:58:56;;;;;;;2.42;1.35;;;25.40;99.90;;;;;;4230875;28;20214;-80
2022/08/04 08:00:59;;;;;;;2.03;1.45;;;25.30;99.90;;;;;;4230319;28;20254;-80
2022/08/04 08:03:03;;;;;;;2.88;1.33;;;25.30;99.90;;;;;;4230763;28;20283;-80
2022/08/04 08:05:07;;;;;;;2.17;1.52;;;25.30;99.90;;;;;;4230550;28;20275;-80
2022/08/04 08:07:10;;;;;;;4.25;1.92;;;25.30;99.90;;;;;;4230657;28;20217;-80
2022/08/04 08:09:14;;;;;;;2.38;1.52;;;25.30;99.90;;;;;;4230091;28;20262;-80
2022/08/04 08:11:18;;;;;;;2.28;1.67;;;25.30;99.90;;;;;;4230217;28;20281;-80
2022/08/04 08:13:20;;;;;;;2.63;1.73;;;25.40;99.90;;;;;;4230338;28;20214;-80
2022/08/04 08:15:25;;;;;;;2.67;1.77;;;25.30;99.90;;;;;;4229953;28;20221;-80
2022/08/04 08:17:27;;;;;;;3.03;1.60;;;25.30;99.90;;;;;;4230339;28;20218;-80
2022/08/04 08:19:29;;;;;;;3.85;1.70;;;25.30;99.90;;;;;;4230209;28;20218;-79
2022/08/04 08:21:33;;;;;;;3.42;1.63;;;25.30;99.90;;;;;;4230164;28;20578;-79
2022/08/04 08:23:36;;;;;;;4.05;1.70;;;25.30;99.90;;;;;;4230154;28;20245;-81
2022/08/04 08:25:38;;;;;;;4.22;1.88;;;25.30;99.90;;;;;;4230416;28;20543;-82
2022/08/04 08:27:41;;;;;;;2.70;1.35;;;25.30;99.90;;;;;;4230126;28;20213;-82
2022/08/04 08:29:44;;;;;;;2.88;1.50;;;25.30;99.90;;;;;;4230143;28;20214;-82
2022/08/04 08:31:48;;;;;;;3.55;1.70;;;25.30;99.90;;;;;;4229920;28;20225;-81
2022/08/04 08:33:52;;;;;;;3.10;1.75;;;25.30;99.90;;;;;;4230085;28;20259;-82
2022/08/04 08:36:01;;;;;;;2.50;1.40;;;25.30;99.90;;;;;;4230173;28;20583;-82
2022/08/04 08:38:06;;;;;;;3.63;1.65;;;25.30;99.90;;;;;;4231641;28;20254;-82
2022/08/04 08:40:25;;;;;;;1.60;1.35;;;25.30;99.90;;;;;;4231084;28;20221;-82
2022/08/04 08:42:47;;;;;;;2.67;1.48;;;25.30;99.90;;;;;;4231319;28;20213;-82
2022/08/04 08:45:18;;;;;;;2.03;1.60;;;25.30;99.90;;;;;;4229924;28;20230;-82
2022/08/04 08:47:43;;;;;;;3.10;1.70;;;25.30;99.90;;;;;;4195645;28;20274;-82
2022/08/04 08:50:05;;;;;;;2.85;1.67;;;25.30;99.90;;;;;;4231735;28;20205;-82
2022/08/04 08:52:30;;;;;;;2.15;1.60;;;25.30;99.90;;;;;;4230287;28;20266;-83
2022/08/04 08:54:56;;;;;;;3.13;1.63;;;25.30;99.90;;;;;;4229607;28;20254;-83
2022/08/04 08:57:16;;;;;;;2.90;1.92;;;25.30;99.90;;;;;;4229907;28;20723;-82
2022/08/04 08:59:41;;;;;;;3.78;2.00;;;25.30;99.90;;;;;;4229455;28;20481;-82
2022/08/04 09:02:01;;;;;;;2.40;1.45;;;25.30;99.90;;;;;;4225042;28;20294;-82
2022/08/04 09:04:38;;;;;;;4.32;1.70;;;25.30;99.90;;;;;;4228238;28;20282;-83
2022/08/04 09:07:02;;;;;;;2.83;1.83;;;25.30;99.90;;;;;;4228450;28;20617;-82
2022/08/04 09:09:24;;;;;;;2.95;2.00;;;25.30;99.90;;;;;;4228503;28;20217;-83
2022/08/04 09:11:35;;;;;;;3.28;1.77;;;25.20;99.90;;;;;;4228136;28;20221;-82
2022/08/04 09:13:44;;;;;;;2.40;1.90;;;25.20;99.90;;;;;;4228273;28;20622;-82
2022/08/04 09:16:02;;;;;;;4.57;2.17;;;25.20;99.90;;;;;;4229353;28;20255;-82
2022/08/04 09:18:11;;;;;;;3.78;2.38;;;25.20;99.90;;;;;;4229581;28;20239;-82
2022/08/04 09:20:21;;;;;;;3.55;2.47;;;25.20;99.90;;;;;;4229382;28;20255;-82
2022/08/04 09:22:33;;;;;;;4.90;2.88;;;25.20;99.90;;;;;;4229792;28;20267;-82
2022/08/04 09:24:50;;;;;;;6.00;2.80;;;25.20;99.90;;;;;;4229523;28;20233;-82
2022/08/04 09:26:57;;;;;;;3.97;2.38;;;25.20;99.90;;;;;;4229276;28;20274;-82
2022/08/04 09:29:07;;;;;;;4.97;2.55;;;25.20;99.90;;;;;;4229704;28;20262;-83
2022/08/04 09:31:13;;;;;;;5.03;2.72;;;25.20;99.90;;;;;;4229507;28;20210;-82
2022/08/04 09:33:28;;;;;;;3.92;2.40;;;25.20;99.90;;;;;;4230183;28;20893;-82
2022/08/04 09:35:46;;;;;;;3.45;2.90;;;25.20;99.90;;;;;;4229105;28;20677;-82
2022/08/04 09:38:00;;;;;;;3.88;2.70;;;25.20;99.90;;;;;;4229603;28;20259;-82
2022/08/04 09:40:07;;;;;;;4.03;2.20;;;25.20;99.90;;;;;;4229353;28;20235;-82
2022/08/04 09:42:20;;;;;;;5.15;2.90;;;25.20;99.90;;;;;;4229578;28;20259;-82
2022/08/04 09:44:31;;;;;;;5.32;3.08;;;25.20;99.90;;;;;;4229243;28;20230;-83
2022/08/04 09:46:39;;;;;;;5.18;3.00;;;25.20;99.90;;;;;;4229689;28;20281;-82
2022/08/04 09:48:50;;;;;;;5.00;3.40;;;25.20;99.90;;;;;;4229925;28;20266;-82
2022/08/04 09:50:59;;;;;;;6.53;3.20;;;25.20;99.90;;;;;;4229355;28;20263;-82
2022/08/04 09:53:20;;;;;;;5.18;3.63;;;25.20;99.90;;;;;;4229597;28;20666;-83
2022/08/04 09:55:37;;;;;;;5.20;3.03;;;25.20;99.90;;;;;;4231084;28;20282;-82
2022/08/04 09:57:51;;;;;;;4.25;3.15;;;25.20;99.90;;;;;;4232556;28;20280;-82
2022/08/04 10:00:01;;;;;;;4.30;3.00;;;25.20;99.90;;;;;;4233217;28;20218;-83
2022/08/04 10:02:09;;;;;;;3.60;2.60;;;25.20;99.90;;;;;;4232663;28;20263;-82
2022/08/04 10:04:16;;;;;;;3.83;2.50;;;25.20;99.90;;;;;;4232523;28;20233;-82
2022/08/04 10:07:02;;;;;;;4.75;2.60;;;25.20;99.90;;;;;;4232500;28;20254;-82
2022/08/04 10:09:28;;;;;;;3.63;2.65;;;25.30;99.90;;;;;;4216269;28;20259;-82
2022/08/04 10:11:52;;;;;;;6.07;3.45;;;25.20;99.90;;;;;;4232491;28;20206;-82
2022/08/04 10:14:02;;;;;;;3.92;2.60;;;25.30;99.90;;;;;;4233135;28;20213;-82
2022/08/04 10:16:20;;;;;;;5.57;2.88;;;25.30;99.90;;;;;;4232516;28;20610;-83
2022/08/04 10:18:42;;;;;;;4.32;2.90;;;25.30;99.90;;;;;;4232286;28;20627;-82
2022/08/04 10:21:10;;;;;;;4.40;2.85;;;25.30;99.90;;;;;;4231906;28;20217;-83
2022/08/04 10:23:23;;;;;;;3.25;2.55;;;25.30;99.90;;;;;;4229463;28;20210;-82
2022/08/04 10:25:38;;;;;;;5.80;3.28;;;25.30;99.90;;;;;;4232358;28;20283;-81
2022/08/04 10:27:45;;;;;;;4.13;2.83;;;25.30;99.90;;;;;;4231821;28;20278;-80
2022/08/04 10:29:48;;;;;;;4.05;3.00;;;25.30;99.90;;;;;;4232065;28;20263;-80
2022/08/04 10:31:57;;;;;;;4.28;2.70;;;25.30;99.90;;;;;;4232081;28;20214;-80
2022/08/04 10:34:10;;;;;;;5.35;3.13;;;25.30;99.90;;;;;;4231971;28;20209;-81
2022/08/04 10:36:19;;;;;;;4.38;3.50;;;25.30;99.90;;;;;;4231901;28;20691;-79
2022/08/04 10:38:29;;;;;;;3.85;3.10;;;25.40;99.90;;;;;;4232210;28;20221;-79
2022/08/04 10:40:36;;;;;;;5.07;3.47;;;25.30;99.90;;;;;;4232024;28;20266;-79
2022/08/04 10:42:45;;;;;;;4.22;3.10;;;25.30;99.90;;;;;;4231984;28;20271;-79
2022/08/04 10:45:06;;;;;;;4.22;3.40;;;25.30;99.90;;;;;;4231862;28;20286;-80
2022/08/04 10:47:14;;;;;;;4.45;3.55;;;25.40;99.90;;;;;;4231854;28;20217;-79
2022/08/04 10:49:23;;;;;;;5.55;3.35;;;25.40;99.90;;;;;;4231754;28;20213;-79
2022/08/04 10:51:33;;;;;;;4.13;3.05;;;25.40;99.90;;;;;;4231626;28;20213;-80
2022/08/04 10:53:38;;;;;;;4.93;3.47;;;25.40;99.90;;;;;;4231975;28;20658;-79
2022/08/04 10:55:46;;;;;;;4.60;3.47;;;25.40;99.90;;;;;;4231906;28;20610;-79
2022/08/04 10:57:55;;;;;;;3.85;2.80;;;25.40;99.90;;;;;;4231789;28;20254;-80
2022/08/04 11:00:03;;;;;;;5.53;3.50;;;25.40;99.90;;;;;;4231531;28;20213;-79
2022/08/04 11:02:19;;;;;;;5.40;3.90;;;25.40;99.90;;;;;;4231328;28;20282;-79
2022/08/04 11:04:27;;;;;;;4.53;3.60;;;25.40;99.90;;;;;;4231550;28;20571;-79
2022/08/04 11:06:32;;;;;;;4.85;3.67;;;25.50;99.90;;;;;;4230865;28;20604;-79
2022/08/04 11:08:38;;;;;;;4.30;3.60;;;25.50;99.90;;;;;;4231534;28;20283;-79
2022/08/04 11:10:46;;;;;;;7.55;4.03;;;25.50;99.90;;;;;;4231170;28;20218;-80
2022/08/04 11:12:56;;;;;;;5.45;3.90;;;25.40;99.90;;;;;;4231028;28;20701;-80
2022/08/04 11:15:03;;;;;;;6.43;3.92;;;25.50;99.90;;;;;;4231172;28;20218;-79
2022/08/04 11:17:08;;;;;;;5.40;4.07;;;25.50;99.90;;;;;;4231073;28;20554;-80
2022/08/04 11:19:23;;;;;;;5.45;3.67;;;25.50;99.90;;;;;;4231108;28;20225;-79
2022/08/04 11:21:32;;;;;;;5.80;4.28;;;25.50;99.90;;;;;;4231382;28;20267;-79
2022/08/04 11:23:40;;;;;;;5.40;3.78;;;25.50;99.90;;;;;;4231218;28;20217;-79
2022/08/04 11:25:50;;;;;;;5.38;3.80;;;25.50;99.90;;;;;;4231084;28;20285;-79
2022/08/04 11:28:01;;;;;;;4.72;3.85;;;25.50;99.90;;;;;;4231301;28;20202;-79